Time;durP1;ratioP1;P1;durP2;ratioP2;P2;SDS_P1;SDS_P2;PMS_P1;PMS_P2;Temp;Humidity;BMP_temperature;BMP_pressure;BME280_temperature;BME280_humidity;BME280_pressure;Samples;Min_cycle;Max_cycle;Signal;HPM_P1;HPM_P2
2022/01/21 00:01:25;;;;;;;16.58;4.97;;;;;;;-3.06;79.27;98450.34;5112808;28;20076;-80
2022/01/21 00:03:52;;;;;;;10.55;4.70;;;;;;;-3.08;79.06;98451.56;5108822;28;20463;-80
2022/01/21 00:06:17;;;;;;;13.50;4.88;;;;;;;-3.10;78.89;98457.16;5112316;28;20077;-80
2022/01/21 00:08:45;;;;;;;11.10;4.72;;;;;;;-3.11;79.75;98460.03;5111755;28;20027;-80
2022/01/21 00:11:12;;;;;;;14.80;4.65;;;;;;;-3.14;79.58;98459.41;5112428;28;20027;-80
2022/01/21 00:13:39;;;;;;;11.07;4.53;;;;;;;-3.10;80.26;98467.88;5112354;28;20081;-80
2022/01/21 00:16:07;;;;;;;13.05;5.65;;;;;;;-3.10;79.62;98457.16;5111843;28;20028;-80
2022/01/21 00:18:35;;;;;;;15.40;5.03;;;;;;;-3.08;79.78;98467.66;5111348;28;20482;-80
2022/01/21 00:31:58;;;;;;;18.67;7.47;;;;;;;-3.13;79.60;98489.75;5110997;27;20035;-80
2022/01/21 00:34:23;;;;;;;15.63;6.57;;;;;;;-3.15;79.95;98495.31;5111999;28;20327;-80
2022/01/21 00:36:49;;;;;;;19.98;8.35;;;;;;;-3.16;79.46;98499.03;5111689;28;20096;-80
2022/01/21 00:39:15;;;;;;;20.80;7.30;;;;;;;-3.22;79.43;98505.22;5111660;28;20070;-81
2022/01/21 00:41:55;;;;;;;16.70;6.68;;;;;;;-3.26;79.69;98497.81;5110992;28;20449;-80
2022/01/21 00:44:21;;;;;;;17.30;5.95;;;;;;;-3.34;79.30;98496.16;5110534;28;20057;-79
2022/01/21 00:46:48;;;;;;;14.93;6.15;;;;;;;-3.36;79.20;98507.06;5111669;28;20107;-78
2022/01/21 00:49:14;;;;;;;11.75;4.78;;;;;;;-3.42;78.93;98515.94;5092840;28;20032;-78
2022/01/21 00:51:40;;;;;;;12.50;5.05;;;;;;;-3.41;79.52;98512.22;5093146;28;20040;-78
2022/01/21 00:54:05;;;;;;;12.55;4.38;;;;;;;-3.41;79.28;98514.09;5111324;28;20117;-78
2022/01/21 00:56:31;;;;;;;19.38;5.90;;;;;;;-3.39;79.22;98520.88;5110438;28;20039;-80
2022/01/21 00:58:56;;;;;;;13.10;4.72;;;;;;;-3.38;79.38;98519.84;5110843;28;20025;-80
2022/01/21 01:01:21;;;;;;;15.48;4.80;;;;;;;-3.32;79.11;98528.97;5093139;28;20103;-79
2022/01/21 01:03:47;;;;;;;11.07;4.35;;;;;;;-3.31;78.73;98523.38;5111479;28;20049;-79
2022/01/21 01:06:12;;;;;;;14.70;5.18;;;;;;;-3.31;78.61;98528.75;5111082;28;20027;-79
2022/01/21 01:08:38;;;;;;;13.18;5.90;;;;;;;-3.29;78.72;98542.78;5110554;28;20024;-78
2022/01/21 01:21:44;;;;;;;13.85;4.07;;;;;;;-3.23;77.89;98541.13;5111143;28;20054;-82
2022/01/21 01:29:24;;;;;;;9.93;3.40;;;;;;;-3.22;77.29;98558.88;5108921;28;20536;-82
2022/01/21 01:31:50;;;;;;;10.93;3.13;;;;;;;-3.24;76.51;98562.81;5110765;28;20023;-82
2022/01/21 01:34:15;;;;;;;9.90;3.40;;;;;;;-3.24;75.71;98549.38;5106809;28;20106;-82
2022/01/21 01:36:44;;;;;;;6.60;2.67;;;;;;;-3.25;75.62;98561.16;5092415;28;20176;-81
2022/01/21 01:41:40;;;;;;;7.70;2.85;;;;;;;-3.29;75.59;98566.09;5110798;28;20048;-83
2022/01/21 01:49:37;;;;;;;6.72;2.78;;;;;;;-3.35;75.81;98566.91;5110739;28;20552;-82
2022/01/21 01:52:09;;;;;;;6.88;2.42;;;;;;;-3.39;75.00;98568.34;5094771;28;20023;-83
2022/01/21 01:54:37;;;;;;;5.85;2.33;;;;;;;-3.44;74.65;98575.13;5110838;28;20039;-82
2022/01/21 01:57:03;;;;;;;4.70;2.05;;;;;;;-3.50;73.98;98580.50;5108644;28;20024;-83
2022/01/21 01:59:29;;;;;;;5.95;1.95;;;;;;;-3.52;73.55;98585.22;5091774;28;20032;-83
2022/01/21 02:02:02;;;;;;;7.20;2.33;;;;;;;-3.54;73.75;98576.56;5111052;28;20023;-82
2022/01/21 02:04:28;;;;;;;7.40;2.13;;;;;;;-3.56;73.03;98590.16;5110278;28;20073;-82
2022/01/21 02:06:53;;;;;;;5.18;2.47;;;;;;;-3.59;72.38;98578.00;5110755;28;20026;-81
2022/01/21 02:09:19;;;;;;;5.97;1.85;;;;;;;-3.60;71.75;98583.53;5109596;28;20035;-82
2022/01/21 02:11:46;;;;;;;6.50;1.83;;;;;;;-3.64;71.32;98599.22;5110688;28;20035;-82
2022/01/21 02:14:16;;;;;;;4.35;2.15;;;;;;;-3.69;71.36;98604.34;5110278;28;20027;-81
2022/01/21 02:22:10;;;;;;;5.53;1.75;;;;;;;-3.77;72.06;98605.34;5110300;28;20095;-81
2022/01/21 02:24:48;;;;;;;10.85;2.53;;;;;;;-3.80;71.04;98612.94;5110130;28;20051;-81
2022/01/21 02:27:14;;;;;;;7.55;2.20;;;;;;;-3.84;71.10;98609.00;5110051;28;20114;-80
2022/01/21 02:29:53;;;;;;;7.63;1.88;;;;;;;-3.86;71.51;98609.22;5109388;28;20027;-80
2022/01/21 02:32:20;;;;;;;6.22;2.00;;;;;;;-3.84;71.71;98614.38;5110087;28;20053;-80
2022/01/21 02:34:46;;;;;;;4.97;2.35;;;;;;;-3.83;71.61;98608.81;5109708;28;20077;-80
2022/01/21 02:37:16;;;;;;;6.65;2.63;;;;;;;-3.79;71.68;98607.41;5090919;28;20024;-80
2022/01/21 02:39:42;;;;;;;7.22;2.00;;;;;;;-3.74;71.71;98610.31;5109350;28;20028;-80
2022/01/21 02:42:08;;;;;;;4.28;1.90;;;;;;;-3.72;72.04;98609.28;5109442;28;20050;-79
2022/01/21 02:44:34;;;;;;;4.65;1.63;;;;;;;-3.76;72.62;98611.53;5091967;28;20019;-81
2022/01/21 02:47:02;;;;;;;9.07;2.10;;;;;;;-3.82;72.49;98610.47;5110723;28;20018;-81
2022/01/21 02:49:28;;;;;;;5.80;1.80;;;;;;;-3.81;72.80;98620.16;5112205;28;20439;-81
2022/01/21 02:51:56;;;;;;;3.72;1.63;;;;;;;-3.82;72.48;98618.50;5112791;28;20055;-81
2022/01/21 02:54:21;;;;;;;3.63;1.60;;;;;;;-3.83;72.13;98618.69;5092888;28;20076;-81
2022/01/21 02:56:47;;;;;;;4.78;1.80;;;;;;;-3.83;71.87;98621.38;5094151;28;20028;-81
2022/01/21 02:59:13;;;;;;;4.00;1.40;;;;;;;-3.78;71.52;98618.94;5112779;28;20392;-82
2022/01/21 03:01:41;;;;;;;3.95;1.33;;;;;;;-3.73;71.19;98627.22;5113377;28;20044;-81
2022/01/21 03:04:08;;;;;;;5.07;1.70;;;;;;;-3.70;71.00;98631.34;5112944;28;20020;-82
2022/01/21 03:06:38;;;;;;;5.75;1.92;;;;;;;-3.69;71.04;98633.81;5094652;28;20019;-81
2022/01/21 03:09:06;;;;;;;5.60;1.80;;;;;;;-3.71;70.50;98645.78;5112390;28;20444;-81
2022/01/21 03:11:31;;;;;;;5.80;2.10;;;;;;;-3.71;70.13;98635.06;5112869;28;20160;-81
2022/01/21 03:13:57;;;;;;;6.70;2.55;;;;;;;-3.71;69.79;98641.25;5112990;28;20475;-82
2022/01/21 03:16:24;;;;;;;4.63;1.45;;;;;;;-3.70;69.55;98642.09;5112675;28;20020;-82
2022/01/21 03:18:50;;;;;;;6.05;2.05;;;;;;;-3.72;69.86;98644.13;5112167;28;20469;-83
2022/01/21 03:21:16;;;;;;;4.03;1.48;;;;;;;-3.72;70.12;98650.31;5112898;28;20019;-82
2022/01/21 03:23:46;;;;;;;5.20;1.63;;;;;;;-3.73;70.00;98654.00;5094380;28;20034;-83
2022/01/21 03:26:14;;;;;;;;;;;;;;;-3.71;70.42;98648.47;5113139;28;20020;-83
2022/01/21 03:28:41;;;;;;;5.65;1.90;;;;;;;-3.70;70.71;98660.84;5111878;28;20014;-83
2022/01/21 03:31:06;;;;;;;6.35;1.85;;;;;;;-3.73;70.53;98662.06;5112626;28;20024;-83
2022/01/21 03:33:32;;;;;;;4.38;1.50;;;;;;;-3.75;70.89;98659.59;5112806;28;20372;-83
2022/01/21 03:35:58;;;;;;;6.10;1.77;;;;;;;-3.72;70.59;98670.94;5112601;28;20024;-81
2022/01/21 03:38:26;;;;;;;3.67;1.73;;;;;;;-3.72;70.30;98663.72;5111885;28;20048;-81
2022/01/21 03:40:52;;;;;;;4.00;2.15;;;;;;;-3.70;69.73;98667.03;5108789;28;20063;-81
2022/01/21 03:43:19;;;;;;;64.57;21.63;;;;;;;-3.69;69.85;98675.91;5112239;28;20024;-81
2022/01/21 03:45:44;;;;;;;6.20;2.25;;;;;;;-3.69;69.27;98667.88;5112518;28;20016;-81
2022/01/21 03:48:10;;;;;;;3.03;1.35;;;;;;;-3.66;69.16;98683.53;5112183;28;20054;-81
2022/01/21 03:50:35;;;;;;;3.50;1.45;;;;;;;-3.64;69.63;98673.44;5111658;28;20051;-82
2022/01/21 03:53:02;;;;;;;6.47;2.78;;;;;;;-3.64;69.22;98671.59;5112038;28;20072;-81
2022/01/21 03:55:28;;;;;;;6.00;2.83;;;;;;;-3.62;69.17;98685.63;5112117;28;20019;-81
2022/01/21 03:57:54;;;;;;;7.90;2.40;;;;;;;-3.62;68.79;98680.25;5111638;28;20028;-81
2022/01/21 04:00:25;;;;;;;10.98;3.22;;;;;;;-3.63;68.91;98685.81;5111777;28;20031;-81
2022/01/21 04:02:51;;;;;;;8.27;2.60;;;;;;;-3.65;68.50;98688.69;5110075;28;20024;-81
2022/01/21 04:05:17;;;;;;;7.38;2.60;;;;;;;-3.65;68.83;98677.97;5112208;28;20027;-82
2022/01/21 04:07:42;;;;;;;8.00;3.55;;;;;;;-3.63;68.77;98691.16;5112255;28;20028;-81
2022/01/21 04:10:09;;;;;;;6.60;2.63;;;;;;;-3.67;68.93;98682.72;5111324;28;20019;-83
2022/01/21 04:12:34;;;;;;;7.63;2.58;;;;;;;-3.67;68.55;98696.13;5093085;28;20057;-83
2022/01/21 04:15:00;;;;;;;4.82;1.52;;;;;;;-3.68;69.33;98699.81;5112025;28;20103;-83
2022/01/21 04:17:26;;;;;;;4.32;1.83;;;;;;;-3.65;69.01;98704.78;5111830;28;20434;-82
2022/01/21 04:19:51;;;;;;;7.90;2.20;;;;;;;-3.65;69.27;98704.78;5111824;28;20020;-81
2022/01/21 04:22:17;;;;;;;5.10;1.70;;;;;;;-3.66;69.46;98702.28;5093386;28;20046;-81
2022/01/21 04:24:45;;;;;;;5.15;1.40;;;;;;;-3.66;69.26;98711.16;5111714;28;20510;-80
2022/01/21 04:27:11;;;;;;;3.28;1.80;;;;;;;-3.68;69.69;98725.81;5111037;28;20482;-77
2022/01/21 04:29:36;;;;;;;8.60;2.30;;;;;;;-3.72;69.74;98721.88;5111800;28;20052;-77
2022/01/21 04:32:02;;;;;;;5.10;1.73;;;;;;;-3.75;70.23;98721.22;5112548;27;20024;-77
2022/01/21 04:34:27;;;;;;;2.92;1.30;;;;;;;-3.79;70.31;98722.66;5091791;28;20108;-78
2022/01/21 04:36:53;;;;;;;5.70;1.70;;;;;;;-3.78;70.08;98724.31;5111680;28;20031;-77
2022/01/21 04:39:25;;;;;;;4.15;1.67;;;;;;;-3.82;70.33;98723.03;5093533;28;20376;-77
2022/01/21 04:49:38;;;;;;;12.75;4.55;;;;;;;-3.78;70.33;98724.31;5107768;28;20024;-78
2022/01/21 04:52:04;;;;;;;7.47;2.97;;;;;;;-3.79;70.19;98722.66;5111026;28;20023;-78
2022/01/21 04:54:31;;;;;;;4.30;1.48;;;;;;;-3.77;69.87;98723.28;5093232;28;20015;-78
2022/01/21 04:56:57;;;;;;;6.85;1.83;;;;;;;-3.78;69.67;98715.41;5111396;28;20027;-78
2022/01/21 04:59:22;;;;;;;7.40;2.42;;;;;;;-3.83;69.56;98715.19;5092797;28;20157;-78
2022/01/21 05:01:47;;;;;;;4.78;1.58;;;;;;;-3.90;69.51;98712.47;5092741;28;20515;-77
2022/01/21 05:04:13;;;;;;;4.97;1.80;;;;;;;-3.95;70.24;98722.94;5110240;28;20041;-77
2022/01/21 05:06:40;;;;;;;5.20;2.30;;;;;;;-3.99;69.80;98727.88;5111480;28;20664;-79
2022/01/21 05:09:06;;;;;;;5.63;1.58;;;;;;;-4.01;70.01;98721.88;5110291;28;20020;-79
2022/01/21 05:11:36;;;;;;;6.53;1.75;;;;;;;-4.02;69.20;98725.56;5111302;28;20432;-78
2022/01/21 05:14:13;;;;;;;;;;;;;;;-4.02;69.96;98720.22;5093257;28;20612;-78
2022/01/21 05:16:45;;;;;;;3.55;1.25;;;;;;;-4.02;69.63;98730.94;5110976;28;19915;-78
2022/01/21 05:19:18;;;;;;;3.83;1.65;;;;;;;-4.02;69.68;98728.25;5103999;27;20114;-77
2022/01/21 05:21:45;;;;;;;3.97;1.38;;;;;;;-4.01;69.88;98729.91;5109217;28;20038;-77
2022/01/21 05:24:11;;;;;;;6.88;1.58;;;;;;;-4.03;69.61;98726.59;5108353;27;20047;-77
2022/01/21 05:26:37;;;;;;;4.57;1.52;;;;;;;-4.03;69.53;98719.38;5110925;28;20455;-75
2022/01/21 05:29:05;;;;;;;5.70;1.88;;;;;;;-4.03;69.17;98721.25;5090162;28;20031;-82
2022/01/21 05:31:30;;;;;;;5.70;1.58;;;;;;;-4.03;69.55;98715.88;5106483;28;20023;-78
2022/01/21 05:33:56;;;;;;;4.00;1.50;;;;;;;-4.02;69.50;98722.91;5111340;28;20028;-77
2022/01/21 05:36:21;;;;;;;5.55;1.80;;;;;;;-4.01;69.50;98726.41;5111553;28;20023;-78
2022/01/21 05:38:46;;;;;;;4.68;1.48;;;;;;;-4.02;69.75;98720.22;5110723;28;20042;-79
2022/01/21 05:41:13;;;;;;;5.13;1.60;;;;;;;-4.03;69.60;98721.25;5111265;28;20126;-77
2022/01/21 05:43:44;;;;;;;4.53;1.40;;;;;;;-4.03;69.42;98713.22;5092837;28;20036;-76
2022/01/21 05:48:54;;;;;;;7.43;2.55;;;;;;;-4.03;69.92;98708.66;5109431;28;20116;-77
2022/01/21 05:51:20;;;;;;;5.47;1.67;;;;;;;-3.99;70.11;98711.78;5111091;28;20054;-77
2022/01/21 05:53:45;;;;;;;5.80;1.35;;;;;;;-3.96;69.79;98718.59;5110500;28;20398;-81
2022/01/21 05:56:12;;;;;;;6.07;1.70;;;;;;;-3.96;69.95;98713.25;5110319;28;20392;-80
2022/01/21 05:58:38;;;;;;;14.13;3.72;;;;;;;-4.00;70.25;98714.66;5090489;28;20467;-78
2022/01/21 06:01:03;;;;;;;20.88;4.90;;;;;;;-4.02;70.44;98714.88;5108921;28;20495;-80
2022/01/21 06:03:31;;;;;;;23.10;7.03;;;;;;;-4.00;70.84;98718.19;5109647;28;20036;-79
2022/01/21 06:05:57;;;;;;;22.27;5.55;;;;;;;-3.98;70.55;98712.59;5089651;28;20475;-79
2022/01/21 06:08:23;;;;;;;19.63;5.88;;;;;;;-3.99;70.22;98725.19;5106686;28;20042;-75
2022/01/21 06:10:48;;;;;;;18.55;4.70;;;;;;;-4.00;70.72;98728.91;5104141;28;20031;-78
2022/01/21 06:13:18;;;;;;;26.60;7.85;;;;;;;-3.97;70.65;98724.97;5090359;28;20028;-77
2022/01/21 06:15:45;;;;;;;28.90;9.52;;;;;;;-3.96;70.90;98722.13;5110554;28;20023;-85
2022/01/21 06:18:10;;;;;;;16.92;6.15;;;;;;;-3.94;71.01;98722.75;5089378;28;20480;-79
2022/01/21 06:20:36;;;;;;;19.02;4.38;;;;;;;-3.92;71.07;98727.91;5091920;28;20060;-80
2022/01/21 06:23:02;;;;;;;10.60;3.05;;;;;;;-3.90;71.32;98737.44;5097265;28;20031;-76
2022/01/21 06:25:27;;;;;;;10.80;4.22;;;;;;;-3.86;71.10;98739.69;5111124;28;20036;-76
2022/01/21 06:27:52;;;;;;;10.93;3.97;;;;;;;-3.84;71.44;98735.81;5110671;28;20139;-78
2022/01/21 06:30:18;;;;;;;6.95;2.28;;;;;;;-3.83;71.16;98740.13;5114074;27;20023;-79
2022/01/21 06:32:43;;;;;;;7.43;1.95;;;;;;;-3.77;71.01;98743.88;5116750;27;20026;-77
2022/01/21 06:35:10;;;;;;;6.18;1.60;;;;;;;-3.73;71.56;98747.81;5112611;28;20024;-78
2022/01/21 06:37:36;;;;;;;10.13;2.85;;;;;;;-3.68;71.23;98752.63;5111178;27;20047;-74
2022/01/21 06:40:04;;;;;;;9.27;2.45;;;;;;;-3.71;70.89;98753.81;5092626;28;20389;-78
2022/01/21 06:42:30;;;;;;;9.73;2.63;;;;;;;-3.69;71.33;98749.09;5113384;27;20496;-79
2022/01/21 06:44:57;;;;;;;7.32;3.25;;;;;;;-3.66;71.26;98764.78;5114219;28;20028;-80
2022/01/21 06:47:22;;;;;;;8.40;2.70;;;;;;;-3.66;71.43;98761.25;5094653;28;20433;-80
2022/01/21 06:49:48;;;;;;;7.00;2.10;;;;;;;-3.64;71.46;98762.75;5113076;28;20082;-77
2022/01/21 06:52:14;;;;;;;4.82;2.20;;;;;;;-3.64;71.17;98756.53;5112896;27;20558;-76
2022/01/21 06:54:39;;;;;;;7.85;2.20;;;;;;;-3.62;71.56;98749.97;5090836;28;20039;-79
2022/01/21 06:57:05;;;;;;;14.15;3.50;;;;;;;-3.60;71.43;98760.47;5111606;28;20069;-76
2022/01/21 06:59:30;;;;;;;22.00;6.03;;;;;;;-3.59;71.29;98760.31;5095749;28;20039;-77
2022/01/21 07:01:56;;;;;;;22.67;6.90;;;;;;;-3.54;71.85;98762.38;5112697;28;20040;-78
2022/01/21 07:04:21;;;;;;;10.10;3.10;;;;;;;-3.47;71.67;98762.44;5114256;27;20022;-78
2022/01/21 07:06:46;;;;;;;22.85;5.30;;;;;;;-3.42;72.00;98775.25;5113136;28;20510;-78
2022/01/21 07:09:12;;;;;;;14.88;4.07;;;;;;;-3.41;72.19;98769.66;5113274;28;20028;-78
2022/01/21 07:11:38;;;;;;;8.00;3.00;;;;;;;-3.44;72.32;98773.59;5113432;28;20028;-77
2022/01/21 07:14:03;;;;;;;8.93;3.30;;;;;;;-3.48;72.52;98777.69;5117699;27;20028;-77
2022/01/21 07:16:29;;;;;;;12.23;3.63;;;;;;;-3.46;72.63;98772.13;5112874;28;20035;-78
2022/01/21 07:18:54;;;;;;;8.27;2.70;;;;;;;-3.41;72.89;98779.59;5111839;28;20160;-78
2022/01/21 07:21:20;;;;;;;19.00;6.38;;;;;;;-3.43;72.82;98774.41;5112519;27;20034;-78
2022/01/21 07:23:45;;;;;;;19.17;5.32;;;;;;;-3.47;73.24;98782.03;5113237;28;20502;-83
2022/01/21 07:26:12;;;;;;;6.80;2.60;;;;;;;-3.45;73.41;98784.50;5114277;28;20115;-79
2022/01/21 07:28:38;;;;;;;7.32;2.88;;;;;;;-3.46;73.76;98772.13;5099020;28;20033;-80
2022/01/21 07:31:03;;;;;;;7.20;2.88;;;;;;;-3.45;73.69;98773.78;5113605;27;20114;-78
2022/01/21 07:33:29;;;;;;;10.88;3.35;;;;;;;-3.44;74.13;98783.47;5118511;27;20035;-80
2022/01/21 07:35:54;;;;;;;8.00;2.70;;;;;;;-3.44;74.11;98780.78;5110409;28;20391;-81
2022/01/21 07:38:20;;;;;;;10.60;3.20;;;;;;;-3.44;74.60;98787.00;5113005;28;20107;-76
2022/01/21 07:40:45;;;;;;;12.82;3.50;;;;;;;-3.40;74.19;98787.41;5112830;27;20062;-76
2022/01/21 07:43:11;;;;;;;7.70;3.03;;;;;;;-3.31;74.36;98796.16;5119585;27;20061;-76
2022/01/21 07:45:37;;;;;;;11.20;3.15;;;;;;;-3.31;74.45;98786.25;5111628;28;20108;-78
2022/01/21 07:48:03;;;;;;;10.63;3.33;;;;;;;-3.32;74.51;98787.25;5106260;28;20032;-79
2022/01/21 07:50:28;;;;;;;12.40;4.20;;;;;;;-3.27;74.49;98785.84;5111820;28;20066;-77
2022/01/21 07:52:54;;;;;;;14.02;4.70;;;;;;;-3.22;74.56;98783.41;5112503;27;20491;-77
2022/01/21 07:55:19;;;;;;;13.68;4.47;;;;;;;-3.19;74.53;98788.38;5092617;28;20051;-75
2022/01/21 07:57:45;;;;;;;14.57;4.53;;;;;;;-3.19;74.40;98789.19;5093645;28;20069;-78
2022/01/21 08:00:11;;;;;;;19.55;5.75;;;;;;;-3.22;74.55;98784.22;5093225;28;20122;-80
2022/01/21 08:02:36;;;;;;;15.25;6.47;;;;;;;-3.22;74.97;98786.91;5112017;28;20486;-77
2022/01/21 08:05:04;;;;;;;21.48;6.32;;;;;;;-3.22;74.91;98800.31;5113144;27;20038;-79
2022/01/21 08:07:30;;;;;;;16.02;5.05;;;;;;;-3.18;75.04;98792.72;5113046;27;20059;-85
2022/01/21 08:09:55;;;;;;;20.90;5.90;;;;;;;-3.12;75.21;98794.59;5091578;28;20047;-78
2022/01/21 08:12:21;;;;;;;26.70;7.00;;;;;;;-3.10;75.16;98794.38;5110742;28;20131;-84
2022/01/21 08:14:46;;;;;;;21.20;5.90;;;;;;;-3.09;75.10;98796.03;5111914;28;20028;-75
2022/01/21 08:17:12;;;;;;;37.83;9.35;;;;;;;-3.07;74.97;98802.88;5091505;28;20506;-78
2022/01/21 08:19:38;;;;;;;50.55;13.27;;;;;;;-3.03;75.35;98795.25;5110716;28;20028;-80
2022/01/21 08:22:04;;;;;;;25.15;7.32;;;;;;;-2.95;75.53;98799.63;5111024;27;20046;-82
2022/01/21 08:24:30;;;;;;;41.17;10.80;;;;;;;-2.92;74.94;98800.06;5111932;27;20119;-84
2022/01/21 08:26:55;;;;;;;25.52;7.00;;;;;;;-2.90;75.09;98791.78;5108925;28;20106;-74
2022/01/21 08:29:21;;;;;;;32.53;7.15;;;;;;;-2.85;74.84;98792.84;5091965;28;20471;-82
2022/01/21 08:31:46;;;;;;;17.27;4.60;;;;;;;-2.79;75.02;98793.91;5111445;28;20028;-81
2022/01/21 08:34:15;;;;;;;17.05;5.85;;;;;;;-2.78;74.84;98784.81;5110467;27;20027;-85
2022/01/21 08:36:41;;;;;;;13.02;3.05;;;;;;;-2.74;74.95;98791.44;5111047;28;20460;-88
2022/01/21 08:39:07;;;;;;;16.40;4.93;;;;;;;-2.70;74.48;98790.03;5090396;28;20119;-82
2022/01/21 08:41:32;;;;;;;17.95;5.43;;;;;;;-2.63;74.51;98787.34;5111836;27;20040;-78
2022/01/21 08:43:58;;;;;;;16.55;4.80;;;;;;;-2.63;73.44;98795.41;5106701;28;20475;-78
2022/01/21 08:46:24;;;;;;;15.35;5.10;;;;;;;-2.61;74.06;98790.66;5085561;28;20023;-78
2022/01/21 08:48:49;;;;;;;16.45;5.50;;;;;;;-2.53;74.01;98799.56;5107770;28;20024;-81
2022/01/21 08:51:23;;;;;;;15.40;4.45;;;;;;;-2.46;73.88;98806.59;5110596;27;20379;-76
2022/01/21 08:53:48;;;;;;;14.27;5.05;;;;;;;-2.39;73.69;98806.59;5110449;28;20036;-75
2022/01/21 08:56:16;;;;;;;14.45;5.35;;;;;;;-2.37;72.99;98801.88;5109790;28;20050;-74
2022/01/21 08:58:44;;;;;;;24.35;7.28;;;;;;;-2.34;72.61;98800.66;5108090;28;20032;-73
2022/01/21 09:01:11;;;;;;;20.35;8.40;;;;;;;-2.26;72.39;98797.78;5107453;28;20100;-77
2022/01/21 09:03:38;;;;;;;21.95;10.02;;;;;;;-2.17;72.23;98811.84;5094971;27;20076;-79
2022/01/21 09:06:04;;;;;;;23.75;6.75;;;;;;;-2.14;71.10;98812.25;5107832;28;20063;-70
2022/01/21 09:08:30;;;;;;;19.48;6.88;;;;;;;-2.08;70.62;98810.59;5109895;28;20019;-73
2022/01/21 09:10:59;;;;;;;28.95;9.50;;;;;;;-2.04;70.83;98816.38;5108076;28;20038;-73
2022/01/21 09:13:28;;;;;;;18.70;5.27;;;;;;;-1.95;69.75;98809.78;5115717;27;20035;-79
2022/01/21 09:15:59;;;;;;;8.07;2.97;;;;;;;-1.85;68.82;98806.69;5111318;27;20028;-80
2022/01/21 09:18:34;;;;;;;7.88;2.70;;;;;;;-1.86;68.42;98810.41;5107855;27;20526;-74
2022/01/21 09:21:00;;;;;;;9.98;3.58;;;;;;;-1.91;67.46;98818.25;5109490;28;20102;-81
2022/01/21 09:23:26;;;;;;;10.65;4.00;;;;;;;-1.91;67.58;98807.50;5093225;28;20032;-79
2022/01/21 09:25:51;;;;;;;7.82;2.78;;;;;;;-1.86;67.57;98794.28;5111712;28;20023;-80
2022/01/21 09:28:17;;;;;;;6.50;2.78;;;;;;;-1.84;67.60;98800.28;5113863;27;20028;-77
2022/01/21 09:30:43;;;;;;;10.52;5.28;;;;;;;-1.80;67.60;98796.94;5109904;27;20050;-76
2022/01/21 09:33:09;;;;;;;14.90;7.80;;;;;;;-1.76;66.93;98820.75;5107645;28;20023;-78
2022/01/21 09:35:34;;;;;;;7.82;3.95;;;;;;;-1.78;66.81;98803.97;5110364;28;20024;-79
2022/01/21 09:38:00;;;;;;;5.78;3.03;;;;;;;-1.77;66.23;98808.31;5111899;28;20471;-79
2022/01/21 09:40:30;;;;;;;8.05;2.85;;;;;;;-1.73;66.58;98823.00;5106850;28;20035;-72
2022/01/21 09:42:57;;;;;;;7.20;2.50;;;;;;;-1.67;65.87;98820.34;5091180;28;20168;-71
2022/01/21 09:45:24;;;;;;;9.85;3.55;;;;;;;-1.66;65.47;98823.84;5093217;28;20493;-75
2022/01/21 09:47:52;;;;;;;11.73;3.95;;;;;;;-1.69;65.08;98824.25;5109656;28;20140;-72
2022/01/21 09:50:20;;;;;;;15.15;4.15;;;;;;;-1.63;65.47;98838.75;5093139;28;20505;-76
2022/01/21 09:52:50;;;;;;;10.05;3.83;;;;;;;-1.70;64.32;98825.28;5105623;28;20482;-78
2022/01/21 09:55:17;;;;;;;11.27;2.95;;;;;;;-1.69;64.91;98848.47;5110778;28;20031;-76
2022/01/21 09:57:46;;;;;;;6.68;2.10;;;;;;;-1.74;64.51;98848.25;5114478;28;20027;-75
2022/01/21 10:00:13;;;;;;;4.70;2.00;;;;;;;-1.74;64.04;98854.47;5101802;28;20476;-75
2022/01/21 10:02:40;;;;;;;6.88;2.22;;;;;;;-1.78;63.59;98820.97;5115333;27;20046;-75
2022/01/21 10:05:06;;;;;;;10.55;2.83;;;;;;;-1.78;64.32;98822.81;5111382;28;20091;-74
2022/01/21 10:07:34;;;;;;;4.97;1.80;;;;;;;-1.74;64.64;98819.50;5113250;28;20110;-73
2022/01/21 10:10:07;;;;;;;12.10;4.40;;;;;;;-1.64;64.04;98829.84;5090595;28;20032;-79
2022/01/21 10:12:32;;;;;;;21.55;7.57;;;;;;;-1.60;63.33;98809.56;5099118;28;20034;-77
2022/01/21 10:14:58;;;;;;;55.58;17.50;;;;;;;-1.50;63.78;98827.97;5111622;28;20027;-77
2022/01/21 10:17:23;;;;;;;23.38;8.93;;;;;;;-1.44;63.54;98810.19;5116163;27;20106;-80
2022/01/21 10:19:51;;;;;;;8.85;4.57;;;;;;;-1.39;62.75;98802.28;5095807;28;20502;-81
2022/01/21 10:22:23;;;;;;;10.27;3.20;;;;;;;-1.40;62.11;98806.00;5097775;28;20111;-78
2022/01/21 10:24:54;;;;;;;5.53;2.65;;;;;;;-1.27;62.49;98810.56;5114846;28;20027;-76
2022/01/21 10:27:41;;;;;;;10.10;2.75;;;;;;;-1.27;61.40;98800.63;5100659;27;20046;-79
2022/01/21 10:30:28;;;;;;;6.03;2.00;;;;;;;-1.32;61.34;98794.22;5099383;27;20023;-77
2022/01/21 10:32:54;;;;;;;18.30;6.03;;;;;;;-1.40;61.24;98792.56;5116309;27;20035;-78
2022/01/21 10:35:30;;;;;;;6.65;1.45;;;;;;;-1.43;61.41;98793.00;5113244;28;20081;-78
2022/01/21 10:38:13;;;;;;;14.57;5.05;;;;;;;-1.44;61.91;98796.75;5095052;28;20035;-76
2022/01/21 10:40:39;;;;;;;20.45;6.07;;;;;;;-1.46;62.00;98799.63;5094534;28;20126;-77
2022/01/21 10:43:18;;;;;;;11.20;3.47;;;;;;;-1.46;61.79;98788.03;5115141;28;20167;-74
2022/01/21 10:45:57;;;;;;;21.65;5.53;;;;;;;-1.48;62.14;98801.69;5111382;28;20116;-77
2022/01/21 10:48:24;;;;;;;27.08;6.95;;;;;;;-1.40;62.63;98784.50;5112586;28;20020;-78
2022/01/21 10:51:18;;;;;;;33.28;9.32;;;;;;;-1.35;61.87;98796.28;5106370;28;20024;-79
2022/01/21 10:53:45;;;;;;;12.90;4.38;;;;;;;-1.28;62.69;98798.16;5117928;27;20038;-76
2022/01/21 10:56:15;;;;;;;6.78;2.45;;;;;;;-1.25;62.48;98793.16;5113384;28;20074;-78
2022/01/21 10:58:43;;;;;;;6.28;2.80;;;;;;;-1.18;61.98;98792.31;5114481;28;20440;-73
2022/01/21 11:01:13;;;;;;;7.22;2.40;;;;;;;-1.16;61.51;98798.31;5116612;28;20028;-76
2022/01/21 11:04:03;;;;;;;18.42;5.93;;;;;;;-1.16;61.12;98793.75;5117761;27;20035;-77
2022/01/21 11:06:38;;;;;;;7.97;3.53;;;;;;;-1.10;61.87;98789.41;5113018;28;20031;-74
2022/01/21 11:09:19;;;;;;;13.60;4.38;;;;;;;-1.03;60.73;98782.13;5094125;28;20152;-80
2022/01/21 11:11:46;;;;;;;23.85;9.50;;;;;;;-1.07;60.82;98791.66;5111958;27;20024;-74
2022/01/21 11:14:18;;;;;;;62.20;27.30;;;;;;;-1.03;61.13;98782.13;5111895;27;20047;-76
2022/01/21 11:16:48;;;;;;;83.90;49.63;;;;;;;-1.06;60.45;98788.75;5093215;28;20539;-73
2022/01/21 11:19:23;;;;;;;12.70;6.22;;;;;;;-1.18;60.05;98790.44;5110203;28;20111;-75
2022/01/21 11:21:56;;;;;;;30.08;16.80;;;;;;;-1.24;60.88;98796.69;5125954;27;20023;-75
2022/01/21 11:24:24;;;;;;;28.13;13.15;;;;;;;-1.24;60.94;98792.13;5108877;28;20425;-72
2022/01/21 11:27:19;;;;;;;30.70;15.20;;;;;;;-1.28;61.31;98790.06;5112196;28;20023;-72
2022/01/21 11:29:46;;;;;;;31.48;10.93;;;;;;;-1.33;61.30;98781.81;5091105;28;20093;-76
2022/01/21 11:32:14;;;;;;;25.23;8.73;;;;;;;-1.37;61.54;98782.22;5107162;27;20352;-73
2022/01/21 11:34:41;;;;;;;25.98;10.43;;;;;;;-1.36;61.59;98789.25;5114872;27;20023;-76
2022/01/21 11:37:08;;;;;;;26.33;9.82;;;;;;;-1.39;61.17;98789.69;5108156;28;20046;-74
2022/01/21 11:39:34;;;;;;;15.93;6.68;;;;;;;-1.41;60.84;98788.22;5110286;28;20034;-83
2022/01/21 11:42:03;;;;;;;10.25;5.03;;;;;;;-1.51;60.96;98770.66;5088392;27;20059;-80
2022/01/21 11:44:30;;;;;;;14.80;6.22;;;;;;;-1.55;60.87;98782.88;5109914;28;20040;-77
2022/01/21 11:47:37;;;;;;;11.20;5.05;;;;;;;-1.55;61.34;98776.66;5110585;28;20097;-73
2022/01/21 11:49:59;;;;;;;11.07;4.83;;;;;;;-1.54;61.59;98771.09;5109284;28;20031;-81
2022/01/21 11:52:25;;;;;;;11.30;4.63;;;;;;;-1.55;61.50;98774.81;5092797;28;20285;-81
2022/01/21 11:54:51;;;;;;;11.43;4.60;;;;;;;-1.61;60.94;98778.31;5092012;28;20529;-79
2022/01/21 11:57:27;;;;;;;9.63;4.90;;;;;;;-1.61;61.20;98769.41;5110891;28;20120;-84
2022/01/21 12:00:03;;;;;;;10.02;4.40;;;;;;;-1.62;61.17;98776.69;5110583;27;20106;-81
2022/01/21 12:02:36;;;;;;;10.73;4.15;;;;;;;-1.64;61.15;98770.69;5108593;28;20035;-79
2022/01/21 12:05:10;;;;;;;13.77;5.35;;;;;;;-1.59;61.35;98765.50;5093212;28;20027;-77
2022/01/21 12:07:36;;;;;;;7.10;2.72;;;;;;;-1.54;61.16;98781.84;5091427;28;20024;-80
2022/01/21 12:10:12;;;;;;;10.90;3.50;;;;;;;-1.53;61.10;98775.44;5114202;27;20035;-81
2022/01/21 12:20:47;;;;;;;14.80;4.78;;;;;;;-1.61;60.38;98762.19;5112131;28;20590;-81
2022/01/21 12:23:19;;;;;;;6.60;2.60;;;;;;;-1.60;60.74;98753.09;5091758;28;20068;-79
2022/01/21 12:26:09;;;;;;;12.00;4.60;;;;;;;-1.58;60.82;98748.31;5111049;27;20107;-82
2022/01/21 12:28:45;;;;;;;11.88;3.67;;;;;;;-1.58;61.07;98767.16;5092644;28;20479;-76
2022/01/21 12:31:13;;;;;;;12.10;3.83;;;;;;;-1.58;61.48;98748.31;5093941;28;20023;-82